createdAt,value
2018-12-08T00:00:02.920Z,9.30
2018-12-08T00:05:09.844Z,9.30
2018-12-08T00:10:15.842Z,9.40
2018-12-08T00:15:23.057Z,9.40
2018-12-08T00:20:28.855Z,9.40
2018-12-08T00:25:34.647Z,9.30
2018-12-08T00:30:51.313Z,9.30
2018-12-08T00:35:57.316Z,9.30
2018-12-08T00:41:03.166Z,9.30
2018-12-08T00:46:08.943Z,9.30
2018-12-08T00:51:14.818Z,9.30
2018-12-08T00:56:20.849Z,9.30
2018-12-08T01:01:27.641Z,9.30
2018-12-08T01:06:34.485Z,9.30
2018-12-08T01:11:40.300Z,9.30
2018-12-08T01:16:46.174Z,9.30
2018-12-08T01:21:52.241Z,9.20
2018-12-08T01:26:58.063Z,9.20
2018-12-08T01:32:04.879Z,9.20
2018-12-08T01:37:10.675Z,9.20
2018-12-08T01:42:17.579Z,9.20
2018-12-08T01:47:23.382Z,9.20
2018-12-08T01:52:29.186Z,9.20
2018-12-08T01:57:35.970Z,9.20
2018-12-08T02:02:43.328Z,9.20
2018-12-08T02:07:49.209Z,9.10
2018-12-08T02:12:55.122Z,9.10
2018-12-08T02:18:00.967Z,9.20
2018-12-08T02:23:08.075Z,9.20
2018-12-08T02:28:13.961Z,9.10
2018-12-08T02:33:21.349Z,9.20
2018-12-08T02:38:27.848Z,9.10
2018-12-08T02:43:33.740Z,9.20
2018-12-08T02:48:39.512Z,9.10
2018-12-08T02:53:45.286Z,9.10
2018-12-08T02:58:51.093Z,9.10
2018-12-08T03:03:56.893Z,9.10
2018-12-08T03:09:02.750Z,9.10
2018-12-08T03:14:10.788Z,9.10
2018-12-08T03:19:17.740Z,9.00
2018-12-08T03:24:24.600Z,8.90
2018-12-08T03:29:31.364Z,8.90
2018-12-08T03:34:39.563Z,8.90
2018-12-08T03:39:45.478Z,8.90
2018-12-08T03:44:51.266Z,8.80
2018-12-08T03:49:57.042Z,8.90
2018-12-08T03:55:03.092Z,8.80
2018-12-08T04:00:09.267Z,8.80
2018-12-08T04:05:15.670Z,8.80
2018-12-08T04:10:21.569Z,8.90
2018-12-08T04:15:27.512Z,8.90
2018-12-08T04:20:33.495Z,8.80
2018-12-08T04:25:39.374Z,8.80
2018-12-08T04:30:45.200Z,8.80
2018-12-08T04:35:50.993Z,8.70
2018-12-08T04:40:56.907Z,8.20
2018-12-08T04:46:02.604Z,7.70
2018-12-08T04:51:08.299Z,7.50
2018-12-08T04:56:14.095Z,7.20
2018-12-08T05:01:19.878Z,7.00
2018-12-08T05:06:26.619Z,6.90
2018-12-08T05:11:32.416Z,6.80
2018-12-08T05:16:38.313Z,6.70
2018-12-08T05:21:44.844Z,6.70
2018-12-08T05:26:52.023Z,6.60
2018-12-08T05:31:57.844Z,6.50
2018-12-08T05:37:03.738Z,6.40
2018-12-08T05:42:09.525Z,6.30
2018-12-08T05:47:16.206Z,6.20
2018-12-08T05:52:22.398Z,6.20
2018-12-08T05:57:28.204Z,6.10
2018-12-08T06:02:34.038Z,6.00
2018-12-08T06:07:39.748Z,6.10
2018-12-08T06:12:45.640Z,6.00
2018-12-08T06:17:51.494Z,6.00
2018-12-08T06:22:57.351Z,5.90
2018-12-08T06:28:36.530Z,5.90
2018-12-08T06:33:42.328Z,6.00
2018-12-08T06:38:48.100Z,5.90
2018-12-08T06:43:53.999Z,5.90
2018-12-08T06:49:02.173Z,5.90
2018-12-08T06:54:07.958Z,6.00
2018-12-08T06:59:13.736Z,6.00
2018-12-08T07:04:20.435Z,5.90
2018-12-08T07:09:26.229Z,5.90
2018-12-08T07:14:32.181Z,5.90
2018-12-08T07:19:38.046Z,5.90
2018-12-08T07:24:43.846Z,5.90
2018-12-08T07:29:50.649Z,5.90
2018-12-08T07:34:56.525Z,6.00
2018-12-08T07:40:03.654Z,6.00
2018-12-08T07:45:09.668Z,6.00
2018-12-08T07:50:16.228Z,6.00
2018-12-08T07:55:22.286Z,6.00
2018-12-08T08:00:29.066Z,6.10
2018-12-08T08:05:36.255Z,6.10
2018-12-08T08:16:53.577Z,6.20
2018-12-08T08:22:00.858Z,6.10
2018-12-08T08:27:09.046Z,6.10
2018-12-08T08:32:14.867Z,6.00
2018-12-08T08:37:21.559Z,6.10
2018-12-08T08:42:28.337Z,6.20
2018-12-08T08:47:36.244Z,6.20
2018-12-08T08:52:43.119Z,6.20
2018-12-08T08:57:50.218Z,6.10
2018-12-08T09:02:55.992Z,6.10
2018-12-08T09:08:02.065Z,6.00
2018-12-08T09:13:08.126Z,6.10
2018-12-08T09:18:13.906Z,6.20
2018-12-08T09:23:19.795Z,6.30
2018-12-08T09:28:25.923Z,6.30
2018-12-08T09:33:31.704Z,6.30
2018-12-08T09:38:37.477Z,6.40
2018-12-08T09:43:43.285Z,6.50
2018-12-08T09:48:50.107Z,6.40
2018-12-08T09:53:55.969Z,6.40
2018-12-08T09:59:01.757Z,6.60
2018-12-08T10:04:07.824Z,6.80
2018-12-08T10:09:13.498Z,6.90
2018-12-08T10:14:19.191Z,7.00
2018-12-08T10:19:25.003Z,7.10
2018-12-08T10:24:31.151Z,7.20
2018-12-08T10:29:48.249Z,7.30
2018-12-08T10:34:57.241Z,7.60
2018-12-08T10:40:04.482Z,7.70
2018-12-08T10:45:14.533Z,7.50
2018-12-08T10:50:20.386Z,7.30
2018-12-08T10:55:28.318Z,7.10
2018-12-08T11:00:47.333Z,7.00
2018-12-08T11:05:54.178Z,7.00
2018-12-08T11:11:01.763Z,6.90
2018-12-08T11:16:12.461Z,6.80
2018-12-08T11:21:21.304Z,6.60
2018-12-08T11:26:29.325Z,6.60
2018-12-08T11:31:36.222Z,6.60
2018-12-08T11:36:49.518Z,6.80
2018-12-08T11:41:53.129Z,6.70
2018-12-08T11:46:59.752Z,6.60
2018-12-08T11:52:06.694Z,6.50
2018-12-08T11:57:13.566Z,6.40
2018-12-08T12:02:19.431Z,6.30
2018-12-08T12:07:26.321Z,6.20
2018-12-08T12:12:32.500Z,6.20
2018-12-08T12:17:38.356Z,6.20
2018-12-08T12:22:44.045Z,6.20
2018-12-08T12:27:50.354Z,6.90
2018-12-08T12:32:57.253Z,7.90
2018-12-08T12:38:02.981Z,7.40
2018-12-08T12:43:09.755Z,7.00
2018-12-08T12:48:15.602Z,6.60
2018-12-08T12:53:23.034Z,6.50
2018-12-08T12:58:28.801Z,6.40
2018-12-08T13:03:34.675Z,6.30
2018-12-08T13:08:40.484Z,6.20
2018-12-08T13:13:49.724Z,6.20
2018-12-08T13:18:56.476Z,6.20
2018-12-08T13:24:02.517Z,6.20
2018-12-08T13:29:09.559Z,6.10
2018-12-08T13:34:29.104Z,6.10
2018-12-08T13:39:34.961Z,6.10
2018-12-08T13:44:41.334Z,6.20
2018-12-08T13:49:47.330Z,6.20
2018-12-08T13:54:53.205Z,6.20
2018-12-08T13:59:59.982Z,6.30
2018-12-08T14:05:06.803Z,6.20
2018-12-08T14:10:12.656Z,6.20
2018-12-08T14:15:18.575Z,6.20
2018-12-08T14:20:34.785Z,6.20
2018-12-08T14:25:40.574Z,6.10
2018-12-08T14:30:46.494Z,6.10
2018-12-08T14:35:52.287Z,6.00
2018-12-08T14:40:58.198Z,6.10
2018-12-08T14:46:04.097Z,6.00
2018-12-08T14:51:10.040Z,6.00
2018-12-08T14:56:15.936Z,6.00
2018-12-08T15:01:22.841Z,5.90
2018-12-08T15:06:28.628Z,6.00
2018-12-08T15:11:35.469Z,5.90
2018-12-08T15:16:41.349Z,6.00
2018-12-08T15:21:48.369Z,6.00
2018-12-08T15:26:54.271Z,6.00
2018-12-08T15:32:01.154Z,6.00
2018-12-08T15:37:06.978Z,6.00
2018-12-08T15:42:14.240Z,6.00
2018-12-08T15:47:21.455Z,6.00
2018-12-08T15:52:27.713Z,5.90
2018-12-08T15:57:33.861Z,6.00
2018-12-08T16:02:39.798Z,5.90
2018-12-08T16:07:45.661Z,5.90
2018-12-08T16:12:51.577Z,5.90
2018-12-08T16:17:57.526Z,6.00
2018-12-08T16:23:03.539Z,6.00
2018-12-08T16:28:10.217Z,6.00
2018-12-08T16:33:17.502Z,6.00
2018-12-08T16:38:23.472Z,6.00
2018-12-08T16:43:30.066Z,6.00
2018-12-08T16:48:36.116Z,5.90
2018-12-08T16:53:43.072Z,5.90
2018-12-08T16:58:49.035Z,6.00
2018-12-08T17:03:54.882Z,6.00
2018-12-08T17:09:00.806Z,6.00
2018-12-08T17:14:08.996Z,6.00
2018-12-08T17:19:14.951Z,6.00
2018-12-08T17:24:20.789Z,6.00
2018-12-08T17:29:26.789Z,6.00
2018-12-08T17:34:32.641Z,6.00
2018-12-08T17:39:40.614Z,6.10
2018-12-08T17:44:46.686Z,6.10
2018-12-08T17:49:53.575Z,6.10
2018-12-08T17:54:59.393Z,6.10
2018-12-08T18:00:06.114Z,6.10
2018-12-08T18:05:12.089Z,6.00
2018-12-08T18:10:18.599Z,6.00
2018-12-08T18:15:24.534Z,6.00
2018-12-08T18:20:30.362Z,5.90
2018-12-08T18:25:38.130Z,6.00
2018-12-08T18:30:44.541Z,5.90
2018-12-08T18:35:51.583Z,5.90
2018-12-08T18:40:57.369Z,5.90
2018-12-08T18:46:03.214Z,5.90
2018-12-08T18:51:09.001Z,5.90
2018-12-08T18:56:14.804Z,5.90
2018-12-08T19:01:20.615Z,6.00
2018-12-08T19:06:27.285Z,6.00
2018-12-08T19:11:33.339Z,6.00
2018-12-08T19:16:39.420Z,6.00
2018-12-08T19:26:46.187Z,6.00
2018-12-08T19:31:52.566Z,6.00
2018-12-08T19:36:58.317Z,6.00
2018-12-08T19:42:06.129Z,6.00
2018-12-08T19:47:11.913Z,6.00
2018-12-08T19:52:17.786Z,6.00
2018-12-08T19:57:23.579Z,6.00
2018-12-08T20:02:29.372Z,6.00
2018-12-08T20:07:35.241Z,6.00
2018-12-08T20:12:41.036Z,6.00
2018-12-08T20:17:46.926Z,6.10
2018-12-08T20:22:53.804Z,6.00
2018-12-08T20:27:59.576Z,6.00
2018-12-08T20:33:06.115Z,6.00
2018-12-08T20:38:11.869Z,6.00
2018-12-08T20:43:18.663Z,5.90
2018-12-08T20:48:25.457Z,5.90
2018-12-08T20:53:31.320Z,5.80
2018-12-08T20:58:37.254Z,5.80
2018-12-08T21:03:43.209Z,5.80
2018-12-08T21:08:51.025Z,5.80
2018-12-08T21:13:56.938Z,5.80
2018-12-08T21:19:02.787Z,5.90
2018-12-08T21:24:08.811Z,5.80
2018-12-08T21:29:14.916Z,5.80
2018-12-08T21:34:20.849Z,5.90
2018-12-08T21:39:27.671Z,5.90
2018-12-08T21:44:33.820Z,5.90
2018-12-08T21:49:39.715Z,5.90
2018-12-08T21:54:45.467Z,5.90
2018-12-08T21:59:51.281Z,6.00
2018-12-08T22:04:57.075Z,6.00
2018-12-08T22:10:02.864Z,6.00
2018-12-08T22:15:14.403Z,6.00
2018-12-08T22:20:20.164Z,5.90
2018-12-08T22:25:26.849Z,5.90
2018-12-08T22:30:32.625Z,6.00
2018-12-08T22:35:38.415Z,6.00
2018-12-08T22:40:44.437Z,6.10
2018-12-08T22:45:50.233Z,6.10
2018-12-08T22:50:56.004Z,6.10
2018-12-08T22:56:01.929Z,6.10
2018-12-08T23:01:08.099Z,6.20
2018-12-08T23:06:13.999Z,6.20
2018-12-08T23:11:19.787Z,6.20
2018-12-08T23:16:25.567Z,6.20
2018-12-08T23:21:31.380Z,6.30
2018-12-08T23:26:39.101Z,6.20
2018-12-08T23:31:45.015Z,6.20
2018-12-08T23:36:50.893Z,6.30
2018-12-08T23:41:56.801Z,6.30
2018-12-08T23:47:02.593Z,6.40
2018-12-08T23:52:08.408Z,6.40
2018-12-08T23:57:14.308Z,6.50
